Coffey, Missouri
Current Conditions -  °F | °C
As of 3:53 AM on Friday 24 Oct 2014 (Local Time) from KLWD Reporting Station
Moderate Fog Moderate Fog  
Wind Chill: 58°   Ceiling: 200
Heat Index: 58°   Visibility: 0.25mi
Dew Point: 57°   Wind: 7mph
Humidity: 97%   Direction: 230°SW
Pressure: 30.04"   Gusts: NA
Location:  40.11°N, 94.01°W
Report Text: KLWD 240853Z AUTO 23006KT 1/4SM FG VV002 14/14 A3004 RMK AO2 SLP168 T01440139 58004
Loading
Personal Weather Stations






























Interactive Weather Map
Tropical Storm Tracking
New forecast layout! Learn more

10-Day Weather Forecast

Advertisements
Track Severe Weather on mobile